| Date | Time | Temp. (oF) | Dew Point (oF) | Rel. Hum. (%) | Press. (in.) | Wind Dir. (deg.) | Wind Speed (mph) | Hourly Rainfall (i n.) |
|
|---|---|---|---|---|---|---|---|---|---|
| 1 | 05/22 | 24:00 | 60 | 49 | 68 | 30.22 | 270 | 0 | 0.00 |
| 2 | 05/21 | 23:00 | 62 | 48 | 62 | 30.22 | 270 | 0 | 0.00 |
| 3 | 05/21 | 22:00 | 64 | 49 | 60 | 30.23 | 270 | 0 | 0.00 |
| 4 | 05/21 | 21:00 | 68 | 49 | 52 | 30.23 | 270 | 0 | 0.00 |
| 5 | 05/21 | 20:00 | 71 | 48 | 45 | 30.21 | 270 | 0 | 0.00 |
| 6 | 05/21 | 19:00 | 74 | 45 | 37 | 30.22 | 270 | 2 | 0.00 |
| 7 | 05/21 | 18:00 | 77 | 46 | 34 | 30.20 | 230 | 0 | 0.00 |
| 8 | 05/21 | 17:00 | 78 | 45 | 32 | 30.16 | 230 | 1 | 0.00 |
| 9 | 05/21 | 16:00 | 78 | 45 | 32 | 30.16 | 290 | 7 | 0.00 |
| 10 | 05/21 | 15:00 | 80 | 47 | 32 | 30.18 | 10 | 1 | 0.00 |
| 11 | 05/21 | 14:00 | 80 | 45 | 30 | 30.20 | 10 | 7 | 0.00 |
| 12 | 05/21 | 13:00 | 78 | 46 | 33 | 30.22 | 40 | 2 | 0.00 |
| 13 | 05/21 | 12:00 | 77 | 45 | 33 | 30.24 | 260 | 6 | 0.00 |
| 14 | 05/21 | 11:00 | 72 | 45 | 39 | 30.25 | 250 | 2 | 0.00 |
| 15 | 05/21 | 10:00 | 61 | 43 | 53 | 30.26 | 290 | 6 | 0.00 |
| 16 | 05/21 | 09:00 | 54 | 42 | 64 | 30.27 | 310 | 1 | 0.00 |
| 17 | 05/21 | 08:00 | 49 | 43 | 81 | 30.32 | 310 | 2 | 0.00 |
| 18 | 05/21 | 07:00 | 45 | 39 | 81 | 30.32 | 20 | 0 | 0.00 |
| 19 | 05/21 | 06:00 | 46 | 39 | 78 | 30.30 | 20 | 0 | 0.00 |
| 20 | 05/21 | 05:00 | 47 | 39 | 75 | 30.28 | 20 | 0 | 0.00 |
| 21 | 05/21 | 04:00 | 48 | 40 | 76 | 30.29 | 20 | 0 | 0.00 |
| 22 | 05/21 | 03:00 | 50 | 42 | 74 | 30.30 | 20 | 0 | 0.00 |
| 23 | 05/21 | 02:00 | 51 | 41 | 71 | 30.29 | 20 | 0 | 0.00 |
| 24 | 05/21 | 01:00 | 54 | 43 | 68 | 30.29 | 20 | 0 | 0.00 |